sensor_id;sensor_type;location;lat;lon;timestamp;P1;durP1;ratioP1;P2;durP2;ratioP2
36653;SDS011;22650;49.350;20.898;2022-11-20T00:01:16;29.42;;;11.68;;
36653;SDS011;22650;49.350;20.898;2022-11-20T00:03:52;29.70;;;12.10;;
36653;SDS011;22650;49.350;20.898;2022-11-20T00:06:26;25.83;;;11.93;;
36653;SDS011;22650;49.350;20.898;2022-11-20T00:09:01;29.15;;;11.60;;
36653;SDS011;22650;49.350;20.898;2022-11-20T00:11:34;30.02;;;12.02;;
36653;SDS011;22650;49.350;20.898;2022-11-20T00:14:08;32.80;;;13.48;;
36653;SDS011;22650;49.350;20.898;2022-11-20T00:16:44;29.80;;;11.85;;
36653;SDS011;22650;49.350;20.898;2022-11-20T00:19:17;28.67;;;11.93;;
36653;SDS011;22650;49.350;20.898;2022-11-20T00:21:51;29.80;;;11.38;;
36653;SDS011;22650;49.350;20.898;2022-11-20T00:24:26;30.13;;;12.15;;
36653;SDS011;22650;49.350;20.898;2022-11-20T00:27:00;28.40;;;10.90;;
36653;SDS011;22650;49.350;20.898;2022-11-20T00:29:33;32.22;;;11.88;;
36653;SDS011;22650;49.350;20.898;2022-11-20T00:32:08;34.78;;;13.52;;
36653;SDS011;22650;49.350;20.898;2022-11-20T00:34:41;37.10;;;13.73;;
36653;SDS011;22650;49.350;20.898;2022-11-20T00:37:15;35.53;;;12.82;;
36653;SDS011;22650;49.350;20.898;2022-11-20T00:39:48;30.88;;;11.95;;
36653;SDS011;22650;49.350;20.898;2022-11-20T00:42:21;35.40;;;12.82;;
36653;SDS011;22650;49.350;20.898;2022-11-20T00:44:54;35.75;;;14.35;;
36653;SDS011;22650;49.350;20.898;2022-11-20T00:47:29;32.08;;;12.13;;
36653;SDS011;22650;49.350;20.898;2022-11-20T00:50:03;30.08;;;12.57;;
36653;SDS011;22650;49.350;20.898;2022-11-20T00:52:37;32.72;;;13.10;;
36653;SDS011;22650;49.350;20.898;2022-11-20T00:55:10;29.55;;;13.18;;
36653;SDS011;22650;49.350;20.898;2022-11-20T00:57:44;30.70;;;12.40;;
36653;SDS011;22650;49.350;20.898;2022-11-20T01:00:17;33.25;;;12.23;;
36653;SDS011;22650;49.350;20.898;2022-11-20T01:02:52;28.95;;;11.93;;
36653;SDS011;22650;49.350;20.898;2022-11-20T01:05:28;34.88;;;13.57;;
36653;SDS011;22650;49.350;20.898;2022-11-20T01:08:01;35.15;;;14.00;;
36653;SDS011;22650;49.350;20.898;2022-11-20T01:10:35;34.70;;;13.57;;
36653;SDS011;22650;49.350;20.898;2022-11-20T01:13:08;45.60;;;18.55;;
36653;SDS011;22650;49.350;20.898;2022-11-20T01:16:01;42.63;;;16.90;;
36653;SDS011;22650;49.350;20.898;2022-11-20T01:18:37;48.00;;;19.85;;
36653;SDS011;22650;49.350;20.898;2022-11-20T01:21:13;36.13;;;14.93;;
36653;SDS011;22650;49.350;20.898;2022-11-20T01:23:48;54.65;;;20.02;;
36653;SDS011;22650;49.350;20.898;2022-11-20T01:26:23;47.88;;;17.60;;
36653;SDS011;22650;49.350;20.898;2022-11-20T01:28:57;43.85;;;16.02;;
36653;SDS011;22650;49.350;20.898;2022-11-20T01:31:32;51.42;;;18.45;;
36653;SDS011;22650;49.350;20.898;2022-11-20T01:34:09;40.55;;;17.02;;
36653;SDS011;22650;49.350;20.898;2022-11-20T01:36:44;51.38;;;20.95;;
36653;SDS011;22650;49.350;20.898;2022-11-20T01:39:19;42.10;;;18.67;;
36653;SDS011;22650;49.350;20.898;2022-11-20T01:41:55;44.78;;;15.57;;
36653;SDS011;22650;49.350;20.898;2022-11-20T01:44:50;36.03;;;13.90;;
36653;SDS011;22650;49.350;20.898;2022-11-20T01:47:28;48.53;;;16.95;;
36653;SDS011;22650;49.350;20.898;2022-11-20T01:50:09;60.53;;;22.30;;
36653;SDS011;22650;49.350;20.898;2022-11-20T01:52:50;46.25;;;17.73;;
36653;SDS011;22650;49.350;20.898;2022-11-20T01:55:28;43.17;;;18.15;;
36653;SDS011;22650;49.350;20.898;2022-11-20T01:58:05;46.08;;;17.52;;
36653;SDS011;22650;49.350;20.898;2022-11-20T02:00:39;46.50;;;18.88;;
36653;SDS011;22650;49.350;20.898;2022-11-20T02:03:15;46.58;;;19.25;;
36653;SDS011;22650;49.350;20.898;2022-11-20T02:05:51;46.80;;;17.90;;
36653;SDS011;22650;49.350;20.898;2022-11-20T02:08:30;38.90;;;15.85;;
36653;SDS011;22650;49.350;20.898;2022-11-20T02:11:04;45.67;;;16.58;;
36653;SDS011;22650;49.350;20.898;2022-11-20T02:13:38;37.65;;;15.90;;
36653;SDS011;22650;49.350;20.898;2022-11-20T02:16:20;44.80;;;16.13;;
36653;SDS011;22650;49.350;20.898;2022-11-20T02:18:57;38.42;;;14.68;;
36653;SDS011;22650;49.350;20.898;2022-11-20T02:21:37;39.75;;;16.27;;
36653;SDS011;22650;49.350;20.898;2022-11-20T02:24:16;44.75;;;14.18;;
36653;SDS011;22650;49.350;20.898;2022-11-20T02:26:53;45.75;;;16.17;;
36653;SDS011;22650;49.350;20.898;2022-11-20T02:29:30;29.00;;;13.10;;
36653;SDS011;22650;49.350;20.898;2022-11-20T02:32:06;32.25;;;14.20;;
36653;SDS011;22650;49.350;20.898;2022-11-20T02:34:51;32.55;;;12.93;;
36653;SDS011;22650;49.350;20.898;2022-11-20T02:37:26;34.80;;;14.27;;
36653;SDS011;22650;49.350;20.898;2022-11-20T02:40:07;34.08;;;12.95;;
36653;SDS011;22650;49.350;20.898;2022-11-20T02:42:41;33.90;;;14.07;;
36653;SDS011;22650;49.350;20.898;2022-11-20T02:45:15;37.20;;;14.85;;
36653;SDS011;22650;49.350;20.898;2022-11-20T02:47:48;30.98;;;12.45;;
36653;SDS011;22650;49.350;20.898;2022-11-20T02:50:22;40.60;;;16.30;;
36653;SDS011;22650;49.350;20.898;2022-11-20T02:52:55;36.25;;;13.63;;
36653;SDS011;22650;49.350;20.898;2022-11-20T02:55:30;35.58;;;14.70;;
36653;SDS011;22650;49.350;20.898;2022-11-20T02:58:03;52.17;;;21.23;;
36653;SDS011;22650;49.350;20.898;2022-11-20T03:00:37;46.92;;;18.27;;
36653;SDS011;22650;49.350;20.898;2022-11-20T03:03:10;47.50;;;19.70;;
36653;SDS011;22650;49.350;20.898;2022-11-20T03:05:44;43.53;;;17.95;;
36653;SDS011;22650;49.350;20.898;2022-11-20T03:08:17;45.35;;;18.52;;
36653;SDS011;22650;49.350;20.898;2022-11-20T03:10:52;45.70;;;18.27;;
36653;SDS011;22650;49.350;20.898;2022-11-20T03:13:25;57.35;;;20.52;;
36653;SDS011;22650;49.350;20.898;2022-11-20T03:16:04;50.55;;;19.65;;
36653;SDS011;22650;49.350;20.898;2022-11-20T03:18:42;51.65;;;17.50;;
36653;SDS011;22650;49.350;20.898;2022-11-20T03:21:16;47.08;;;17.50;;
36653;SDS011;22650;49.350;20.898;2022-11-20T03:23:49;48.40;;;18.63;;
36653;SDS011;22650;49.350;20.898;2022-11-20T03:26:24;38.75;;;15.93;;
36653;SDS011;22650;49.350;20.898;2022-11-20T03:28:59;48.58;;;18.25;;
36653;SDS011;22650;49.350;20.898;2022-11-20T03:31:35;42.75;;;15.68;;
36653;SDS011;22650;49.350;20.898;2022-11-20T03:34:11;49.08;;;16.08;;
36653;SDS011;22650;49.350;20.898;2022-11-20T03:36:45;34.58;;;15.48;;
36653;SDS011;22650;49.350;20.898;2022-11-20T03:39:18;32.70;;;12.65;;
36653;SDS011;22650;49.350;20.898;2022-11-20T03:41:53;36.55;;;13.40;;
36653;SDS011;22650;49.350;20.898;2022-11-20T03:44:27;37.40;;;14.15;;
36653;SDS011;22650;49.350;20.898;2022-11-20T03:47:00;39.80;;;16.20;;
36653;SDS011;22650;49.350;20.898;2022-11-20T03:49:33;36.75;;;13.77;;
36653;SDS011;22650;49.350;20.898;2022-11-20T03:52:07;34.63;;;13.10;;
36653;SDS011;22650;49.350;20.898;2022-11-20T03:54:40;32.47;;;12.02;;
36653;SDS011;22650;49.350;20.898;2022-11-20T03:57:15;34.65;;;14.40;;
36653;SDS011;22650;49.350;20.898;2022-11-20T03:59:49;47.15;;;15.43;;
36653;SDS011;22650;49.350;20.898;2022-11-20T04:02:22;30.20;;;13.70;;
36653;SDS011;22650;49.350;20.898;2022-11-20T04:04:55;31.63;;;13.25;;
36653;SDS011;22650;49.350;20.898;2022-11-20T04:07:29;35.97;;;16.35;;
36653;SDS011;22650;49.350;20.898;2022-11-20T04:10:03;31.50;;;13.30;;
36653;SDS011;22650;49.350;20.898;2022-11-20T04:12:38;36.55;;;15.30;;
36653;SDS011;22650;49.350;20.898;2022-11-20T04:15:12;39.55;;;15.95;;
36653;SDS011;22650;49.350;20.898;2022-11-20T04:17:45;33.45;;;15.45;;
36653;SDS011;22650;49.350;20.898;2022-11-20T04:20:18;34.22;;;15.48;;
36653;SDS011;22650;49.350;20.898;2022-11-20T04:22:52;40.50;;;15.15;;
36653;SDS011;22650;49.350;20.898;2022-11-20T04:25:27;32.90;;;13.38;;
36653;SDS011;22650;49.350;20.898;2022-11-20T04:28:01;35.67;;;13.63;;
36653;SDS011;22650;49.350;20.898;2022-11-20T04:30:35;30.48;;;14.27;;
36653;SDS011;22650;49.350;20.898;2022-11-20T04:33:09;49.40;;;15.52;;
36653;SDS011;22650;49.350;20.898;2022-11-20T04:35:42;33.30;;;13.52;;
36653;SDS011;22650;49.350;20.898;2022-11-20T04:38:18;33.92;;;14.02;;
36653;SDS011;22650;49.350;20.898;2022-11-20T04:40:55;34.60;;;14.82;;
36653;SDS011;22650;49.350;20.898;2022-11-20T04:43:31;44.00;;;17.02;;
36653;SDS011;22650;49.350;20.898;2022-11-20T04:46:05;40.13;;;16.02;;
36653;SDS011;22650;49.350;20.898;2022-11-20T04:48:38;35.53;;;13.95;;
36653;SDS011;22650;49.350;20.898;2022-11-20T04:51:11;38.58;;;15.38;;
36653;SDS011;22650;49.350;20.898;2022-11-20T04:53:45;41.10;;;13.18;;
36653;SDS011;22650;49.350;20.898;2022-11-20T04:56:19;44.20;;;14.73;;
36653;SDS011;22650;49.350;20.898;2022-11-20T04:58:54;35.97;;;14.98;;
36653;SDS011;22650;49.350;20.898;2022-11-20T05:01:27;43.50;;;16.15;;
36653;SDS011;22650;49.350;20.898;2022-11-20T05:04:01;41.65;;;16.63;;
36653;SDS011;22650;49.350;20.898;2022-11-20T05:06:34;39.88;;;15.15;;
36653;SDS011;22650;49.350;20.898;2022-11-20T05:09:08;39.85;;;15.95;;
36653;SDS011;22650;49.350;20.898;2022-11-20T05:11:41;35.17;;;14.45;;
36653;SDS011;22650;49.350;20.898;2022-11-20T05:14:20;36.20;;;14.35;;
36653;SDS011;22650;49.350;20.898;2022-11-20T05:16:54;41.47;;;17.67;;
36653;SDS011;22650;49.350;20.898;2022-11-20T05:19:27;45.65;;;16.65;;
36653;SDS011;22650;49.350;20.898;2022-11-20T05:22:01;46.70;;;16.35;;
36653;SDS011;22650;49.350;20.898;2022-11-20T05:24:34;46.70;;;16.38;;
36653;SDS011;22650;49.350;20.898;2022-11-20T05:27:07;36.15;;;15.38;;
36653;SDS011;22650;49.350;20.898;2022-11-20T05:29:42;38.30;;;15.88;;
36653;SDS011;22650;49.350;20.898;2022-11-20T05:32:16;41.83;;;17.27;;
36653;SDS011;22650;49.350;20.898;2022-11-20T05:34:49;50.97;;;17.77;;
36653;SDS011;22650;49.350;20.898;2022-11-20T05:37:22;48.30;;;17.83;;
36653;SDS011;22650;49.350;20.898;2022-11-20T05:39:55;44.10;;;17.42;;
36653;SDS011;22650;49.350;20.898;2022-11-20T05:42:29;40.75;;;15.50;;
36653;SDS011;22650;49.350;20.898;2022-11-20T05:45:05;44.78;;;16.13;;
36653;SDS011;22650;49.350;20.898;2022-11-20T05:47:39;46.05;;;16.90;;
36653;SDS011;22650;49.350;20.898;2022-11-20T05:50:12;35.90;;;13.80;;
36653;SDS011;22650;49.350;20.898;2022-11-20T05:52:46;43.67;;;15.68;;
36653;SDS011;22650;49.350;20.898;2022-11-20T05:55:19;40.38;;;13.85;;
36653;SDS011;22650;49.350;20.898;2022-11-20T05:57:53;41.03;;;14.13;;
36653;SDS011;22650;49.350;20.898;2022-11-20T06:00:28;37.03;;;14.77;;
36653;SDS011;22650;49.350;20.898;2022-11-20T06:03:01;33.35;;;13.25;;
36653;SDS011;22650;49.350;20.898;2022-11-20T06:05:35;37.75;;;15.80;;
36653;SDS011;22650;49.350;20.898;2022-11-20T06:08:08;31.58;;;13.55;;
36653;SDS011;22650;49.350;20.898;2022-11-20T06:10:41;39.13;;;12.05;;
36653;SDS011;22650;49.350;20.898;2022-11-20T06:13:15;30.55;;;12.45;;
36653;SDS011;22650;49.350;20.898;2022-11-20T06:15:50;34.35;;;13.48;;
36653;SDS011;22650;49.350;20.898;2022-11-20T06:18:25;30.67;;;12.45;;
36653;SDS011;22650;49.350;20.898;2022-11-20T06:21:00;39.22;;;14.55;;
36653;SDS011;22650;49.350;20.898;2022-11-20T06:23:35;39.22;;;17.25;;
36653;SDS011;22650;49.350;20.898;2022-11-20T06:26:09;43.10;;;15.82;;
36653;SDS011;22650;49.350;20.898;2022-11-20T06:28:44;31.33;;;14.43;;
36653;SDS011;22650;49.350;20.898;2022-11-20T06:31:20;41.30;;;17.20;;
36653;SDS011;22650;49.350;20.898;2022-11-20T06:33:54;48.45;;;19.15;;
36653;SDS011;22650;49.350;20.898;2022-11-20T06:36:28;50.55;;;18.13;;
36653;SDS011;22650;49.350;20.898;2022-11-20T06:39:01;49.50;;;17.08;;
36653;SDS011;22650;49.350;20.898;2022-11-20T06:41:35;46.13;;;17.77;;
36653;SDS011;22650;49.350;20.898;2022-11-20T06:44:08;49.08;;;17.00;;
36653;SDS011;22650;49.350;20.898;2022-11-20T06:46:43;48.30;;;18.23;;
36653;SDS011;22650;49.350;20.898;2022-11-20T06:49:17;36.25;;;15.55;;
36653;SDS011;22650;49.350;20.898;2022-11-20T06:51:51;48.28;;;19.83;;
36653;SDS011;22650;49.350;20.898;2022-11-20T06:54:24;46.03;;;19.40;;
36653;SDS011;22650;49.350;20.898;2022-11-20T06:56:57;47.20;;;19.92;;
36653;SDS011;22650;49.350;20.898;2022-11-20T06:59:31;51.63;;;22.00;;
36653;SDS011;22650;49.350;20.898;2022-11-20T07:02:08;52.25;;;19.15;;
36653;SDS011;22650;49.350;20.898;2022-11-20T07:04:42;52.08;;;18.67;;
36653;SDS011;22650;49.350;20.898;2022-11-20T07:07:15;47.85;;;18.10;;
36653;SDS011;22650;49.350;20.898;2022-11-20T07:09:49;41.65;;;18.05;;
36653;SDS011;22650;49.350;20.898;2022-11-20T07:12:22;44.95;;;17.73;;
36653;SDS011;22650;49.350;20.898;2022-11-20T07:14:56;46.17;;;17.42;;
36653;SDS011;22650;49.350;20.898;2022-11-20T07:17:30;58.70;;;20.10;;
36653;SDS011;22650;49.350;20.898;2022-11-20T07:20:04;41.55;;;17.85;;
36653;SDS011;22650;49.350;20.898;2022-11-20T07:22:38;41.85;;;18.83;;
36653;SDS011;22650;49.350;20.898;2022-11-20T07:25:11;43.28;;;17.63;;
36653;SDS011;22650;49.350;20.898;2022-11-20T07:27:45;49.67;;;19.42;;
36653;SDS011;22650;49.350;20.898;2022-11-20T07:30:18;53.22;;;20.63;;
36653;SDS011;22650;49.350;20.898;2022-11-20T07:32:54;56.47;;;21.08;;
36653;SDS011;22650;49.350;20.898;2022-11-20T07:35:28;50.53;;;19.33;;
36653;SDS011;22650;49.350;20.898;2022-11-20T07:38:01;44.53;;;18.05;;
36653;SDS011;22650;49.350;20.898;2022-11-20T07:40:34;50.30;;;17.95;;
36653;SDS011;22650;49.350;20.898;2022-11-20T07:43:08;50.38;;;18.38;;
36653;SDS011;22650;49.350;20.898;2022-11-20T07:45:41;55.63;;;20.40;;
36653;SDS011;22650;49.350;20.898;2022-11-20T07:48:16;42.95;;;18.15;;
36653;SDS011;22650;49.350;20.898;2022-11-20T07:50:52;57.33;;;20.95;;
36653;SDS011;22650;49.350;20.898;2022-11-20T07:53:26;57.20;;;21.50;;
36653;SDS011;22650;49.350;20.898;2022-11-20T07:56:00;46.58;;;19.60;;
36653;SDS011;22650;49.350;20.898;2022-11-20T07:58:34;42.83;;;17.65;;
36653;SDS011;22650;49.350;20.898;2022-11-20T08:01:08;39.47;;;17.50;;
36653;SDS011;22650;49.350;20.898;2022-11-20T08:03:43;36.63;;;16.75;;
36653;SDS011;22650;49.350;20.898;2022-11-20T08:06:16;41.60;;;16.42;;
36653;SDS011;22650;49.350;20.898;2022-11-20T08:08:51;38.53;;;15.82;;
36653;SDS011;22650;49.350;20.898;2022-11-20T08:11:24;35.58;;;15.10;;
36653;SDS011;22650;49.350;20.898;2022-11-20T08:14:15;41.17;;;15.38;;
36653;SDS011;22650;49.350;20.898;2022-11-20T08:16:48;32.78;;;13.15;;
36653;SDS011;22650;49.350;20.898;2022-11-20T08:19:23;47.97;;;16.17;;
36653;SDS011;22650;49.350;20.898;2022-11-20T08:21:57;31.20;;;15.90;;
36653;SDS011;22650;49.350;20.898;2022-11-20T08:24:30;32.90;;;13.63;;
36653;SDS011;22650;49.350;20.898;2022-11-20T08:27:03;31.17;;;13.13;;
36653;SDS011;22650;49.350;20.898;2022-11-20T08:29:37;38.72;;;12.95;;
36653;SDS011;22650;49.350;20.898;2022-11-20T08:32:10;44.45;;;16.05;;
36653;SDS011;22650;49.350;20.898;2022-11-20T08:34:45;49.58;;;17.27;;
36653;SDS011;22650;49.350;20.898;2022-11-20T08:37:19;42.90;;;17.15;;
36653;SDS011;22650;49.350;20.898;2022-11-20T08:39:52;51.45;;;17.13;;
36653;SDS011;22650;49.350;20.898;2022-11-20T08:42:28;34.65;;;12.43;;
36653;SDS011;22650;49.350;20.898;2022-11-20T08:45:02;26.17;;;9.13;;
36653;SDS011;22650;49.350;20.898;2022-11-20T08:47:36;24.95;;;9.60;;
36653;SDS011;22650;49.350;20.898;2022-11-20T08:50:11;31.08;;;10.57;;
36653;SDS011;22650;49.350;20.898;2022-11-20T08:52:45;25.48;;;10.35;;
36653;SDS011;22650;49.350;20.898;2022-11-20T08:55:19;32.90;;;12.55;;
36653;SDS011;22650;49.350;20.898;2022-11-20T08:57:52;27.52;;;11.30;;
36653;SDS011;22650;49.350;20.898;2022-11-20T09:00:25;35.75;;;12.60;;
36653;SDS011;22650;49.350;20.898;2022-11-20T09:02:59;38.88;;;12.82;;
36653;SDS011;22650;49.350;20.898;2022-11-20T09:05:34;35.63;;;15.13;;
36653;SDS011;22650;49.350;20.898;2022-11-20T09:08:08;29.63;;;12.75;;
36653;SDS011;22650;49.350;20.898;2022-11-20T09:10:41;31.52;;;13.05;;
36653;SDS011;22650;49.350;20.898;2022-11-20T09:13:14;34.65;;;14.48;;
36653;SDS011;22650;49.350;20.898;2022-11-20T09:15:52;30.98;;;13.88;;
36653;SDS011;22650;49.350;20.898;2022-11-20T09:18:26;38.25;;;15.05;;
36653;SDS011;22650;49.350;20.898;2022-11-20T09:21:04;37.40;;;14.98;;
36653;SDS011;22650;49.350;20.898;2022-11-20T09:23:39;39.47;;;16.15;;
36653;SDS011;22650;49.350;20.898;2022-11-20T09:26:13;24.90;;;10.95;;
36653;SDS011;22650;49.350;20.898;2022-11-20T09:28:46;31.58;;;13.00;;
36653;SDS011;22650;49.350;20.898;2022-11-20T09:31:25;23.83;;;9.15;;
36653;SDS011;22650;49.350;20.898;2022-11-20T09:33:59;24.55;;;10.25;;
36653;SDS011;22650;49.350;20.898;2022-11-20T09:36:33;22.65;;;9.32;;
36653;SDS011;22650;49.350;20.898;2022-11-20T09:39:07;30.80;;;12.23;;
36653;SDS011;22650;49.350;20.898;2022-11-20T09:41:53;21.83;;;8.40;;
36653;SDS011;22650;49.350;20.898;2022-11-20T09:44:48;18.10;;;7.75;;
36653;SDS011;22650;49.350;20.898;2022-11-20T09:47:32;22.67;;;8.77;;
36653;SDS011;22650;49.350;20.898;2022-11-20T09:50:19;26.23;;;9.43;;
36653;SDS011;22650;49.350;20.898;2022-11-20T09:53:11;24.85;;;10.77;;
36653;SDS011;22650;49.350;20.898;2022-11-20T09:55:47;18.98;;;7.82;;
36653;SDS011;22650;49.350;20.898;2022-11-20T09:58:24;18.77;;;7.95;;
36653;SDS011;22650;49.350;20.898;2022-11-20T10:01:06;19.33;;;8.65;;
36653;SDS011;22650;49.350;20.898;2022-11-20T10:03:46;22.50;;;9.68;;
36653;SDS011;22650;49.350;20.898;2022-11-20T10:06:28;17.88;;;7.93;;
36653;SDS011;22650;49.350;20.898;2022-11-20T10:09:11;26.75;;;9.93;;
36653;SDS011;22650;49.350;20.898;2022-11-20T10:11:52;25.67;;;10.98;;
36653;SDS011;22650;49.350;20.898;2022-11-20T10:14:34;21.35;;;9.02;;
36653;SDS011;22650;49.350;20.898;2022-11-20T10:17:16;23.35;;;10.35;;
36653;SDS011;22650;49.350;20.898;2022-11-20T10:20:10;21.70;;;10.10;;
36653;SDS011;22650;49.350;20.898;2022-11-20T10:22:56;18.23;;;7.78;;
36653;SDS011;22650;49.350;20.898;2022-11-20T10:25:48;16.98;;;7.05;;
36653;SDS011;22650;49.350;20.898;2022-11-20T10:28:29;16.70;;;7.53;;
36653;SDS011;22650;49.350;20.898;2022-11-20T10:31:28;21.38;;;8.55;;
36653;SDS011;22650;49.350;20.898;2022-11-20T10:34:06;19.73;;;7.03;;
36653;SDS011;22650;49.350;20.898;2022-11-20T10:36:54;20.05;;;8.40;;
36653;SDS011;22650;49.350;20.898;2022-11-20T10:39:32;19.63;;;8.40;;
36653;SDS011;22650;49.350;20.898;2022-11-20T10:42:10;20.63;;;8.30;;
36653;SDS011;22650;49.350;20.898;2022-11-20T10:44:49;15.35;;;7.50;;
36653;SDS011;22650;49.350;20.898;2022-11-20T10:47:39;16.80;;;8.07;;
36653;SDS011;22650;49.350;20.898;2022-11-20T10:50:14;21.65;;;8.07;;
36653;SDS011;22650;49.350;20.898;2022-11-20T10:52:55;19.42;;;7.95;;
36653;SDS011;22650;49.350;20.898;2022-11-20T10:55:39;19.08;;;8.40;;
36653;SDS011;22650;49.350;20.898;2022-11-20T10:58:20;17.45;;;8.02;;
36653;SDS011;22650;49.350;20.898;2022-11-20T11:01:03;20.55;;;9.20;;
36653;SDS011;22650;49.350;20.898;2022-11-20T11:03:37;23.80;;;9.23;;
36653;SDS011;22650;49.350;20.898;2022-11-20T11:06:12;22.65;;;8.63;;
36653;SDS011;22650;49.350;20.898;2022-11-20T11:08:51;18.83;;;7.72;;
36653;SDS011;22650;49.350;20.898;2022-11-20T11:11:28;22.25;;;9.27;;
36653;SDS011;22650;49.350;20.898;2022-11-20T11:14:09;22.08;;;8.98;;
36653;SDS011;22650;49.350;20.898;2022-11-20T11:16:48;19.75;;;9.30;;
36653;SDS011;22650;49.350;20.898;2022-11-20T11:19:23;20.55;;;8.80;;
36653;SDS011;22650;49.350;20.898;2022-11-20T11:21:57;17.73;;;8.88;;
36653;SDS011;22650;49.350;20.898;2022-11-20T11:24:30;21.85;;;8.63;;
36653;SDS011;22650;49.350;20.898;2022-11-20T11:27:14;24.00;;;8.98;;
36653;SDS011;22650;49.350;20.898;2022-11-20T11:30:00;22.75;;;9.18;;
36653;SDS011;22650;49.350;20.898;2022-11-20T11:32:36;18.67;;;7.57;;
36653;SDS011;22650;49.350;20.898;2022-11-20T11:35:19;22.98;;;7.25;;
36653;SDS011;22650;49.350;20.898;2022-11-20T11:38:02;20.38;;;8.18;;
36653;SDS011;22650;49.350;20.898;2022-11-20T11:40:36;15.63;;;6.97;;
36653;SDS011;22650;49.350;20.898;2022-11-20T11:43:16;15.43;;;8.27;;
36653;SDS011;22650;49.350;20.898;2022-11-20T11:46:22;16.88;;;7.80;;
36653;SDS011;22650;49.350;20.898;2022-11-20T11:49:00;16.65;;;7.43;;
36653;SDS011;22650;49.350;20.898;2022-11-20T11:51:46;17.67;;;7.90;;
36653;SDS011;22650;49.350;20.898;2022-11-20T11:54:30;12.85;;;6.47;;
36653;SDS011;22650;49.350;20.898;2022-11-20T11:57:10;16.75;;;7.35;;
36653;SDS011;22650;49.350;20.898;2022-11-20T11:59:59;16.13;;;7.63;;
36653;SDS011;22650;49.350;20.898;2022-11-20T12:02:38;15.15;;;7.72;;
36653;SDS011;22650;49.350;20.898;2022-11-20T12:05:21;14.95;;;7.97;;
36653;SDS011;22650;49.350;20.898;2022-11-20T12:07:59;15.50;;;6.97;;
36653;SDS011;22650;49.350;20.898;2022-11-20T12:10:44;17.00;;;8.30;;
36653;SDS011;22650;49.350;20.898;2022-11-20T12:13:23;18.00;;;7.70;;
36653;SDS011;22650;49.350;20.898;2022-11-20T12:16:07;20.35;;;7.38;;
36653;SDS011;22650;49.350;20.898;2022-11-20T12:18:46;15.27;;;7.20;;
36653;SDS011;22650;49.350;20.898;2022-11-20T12:21:25;18.23;;;7.50;;
36653;SDS011;22650;49.350;20.898;2022-11-20T12:24:06;16.38;;;8.02;;
36653;SDS011;22650;49.350;20.898;2022-11-20T12:26:55;17.45;;;7.22;;
36653;SDS011;22650;49.350;20.898;2022-11-20T12:29:39;16.83;;;7.82;;
36653;SDS011;22650;49.350;20.898;2022-11-20T12:35:32;17.23;;;7.90;;
36653;SDS011;22650;49.350;20.898;2022-11-20T12:38:27;14.18;;;7.07;;
36653;SDS011;22650;49.350;20.898;2022-11-20T12:41:29;15.68;;;6.75;;
36653;SDS011;22650;49.350;20.898;2022-11-20T12:44:36;15.02;;;7.32;;
36653;SDS011;22650;49.350;20.898;2022-11-20T12:47:47;16.13;;;7.10;;
36653;SDS011;22650;49.350;20.898;2022-11-20T12:50:32;15.32;;;6.88;;
36653;SDS011;22650;49.350;20.898;2022-11-20T12:53:37;15.30;;;7.40;;
36653;SDS011;22650;49.350;20.898;2022-11-20T12:56:19;17.70;;;6.95;;
36653;SDS011;22650;49.350;20.898;2022-11-20T12:59:06;14.68;;;6.93;;
36653;SDS011;22650;49.350;20.898;2022-11-20T13:01:49;14.95;;;7.20;;
36653;SDS011;22650;49.350;20.898;2022-11-20T13:04:48;15.57;;;7.60;;
36653;SDS011;22650;49.350;20.898;2022-11-20T13:07:33;15.02;;;6.45;;
36653;SDS011;22650;49.350;20.898;2022-11-20T13:10:11;14.63;;;7.13;;
36653;SDS011;22650;49.350;20.898;2022-11-20T13:12:51;12.30;;;6.45;;
36653;SDS011;22650;49.350;20.898;2022-11-20T13:15:34;12.63;;;6.25;;
36653;SDS011;22650;49.350;20.898;2022-11-20T13:18:15;22.48;;;10.15;;
36653;SDS011;22650;49.350;20.898;2022-11-20T13:20:48;19.15;;;8.25;;
36653;SDS011;22650;49.350;20.898;2022-11-20T13:23:25;20.85;;;6.30;;
36653;SDS011;22650;49.350;20.898;2022-11-20T13:26:03;14.63;;;7.10;;
36653;SDS011;22650;49.350;20.898;2022-11-20T13:28:38;13.05;;;6.50;;
36653;SDS011;22650;49.350;20.898;2022-11-20T13:31:23;18.50;;;9.02;;
36653;SDS011;22650;49.350;20.898;2022-11-20T13:34:03;22.73;;;9.95;;
36653;SDS011;22650;49.350;20.898;2022-11-20T13:36:47;18.70;;;9.00;;
36653;SDS011;22650;49.350;20.898;2022-11-20T13:39:28;21.52;;;10.27;;
36653;SDS011;22650;49.350;20.898;2022-11-20T13:42:19;19.30;;;8.82;;
36653;SDS011;22650;49.350;20.898;2022-11-20T13:45:00;21.92;;;10.88;;
36653;SDS011;22650;49.350;20.898;2022-11-20T13:47:46;21.48;;;10.25;;
36653;SDS011;22650;49.350;20.898;2022-11-20T13:50:24;22.30;;;9.15;;
36653;SDS011;22650;49.350;20.898;2022-11-20T13:53:15;22.13;;;9.98;;
36653;SDS011;22650;49.350;20.898;2022-11-20T13:56:10;25.27;;;10.02;;
36653;SDS011;22650;49.350;20.898;2022-11-20T13:58:58;27.48;;;12.05;;
36653;SDS011;22650;49.350;20.898;2022-11-20T14:01:45;27.20;;;12.05;;
36653;SDS011;22650;49.350;20.898;2022-11-20T14:04:20;30.63;;;12.73;;
36653;SDS011;22650;49.350;20.898;2022-11-20T14:06:59;22.63;;;10.98;;
36653;SDS011;22650;49.350;20.898;2022-11-20T14:09:33;21.35;;;9.57;;
36653;SDS011;22650;49.350;20.898;2022-11-20T14:12:14;17.60;;;8.10;;
36653;SDS011;22650;49.350;20.898;2022-11-20T14:14:50;19.55;;;8.40;;
36653;SDS011;22650;49.350;20.898;2022-11-20T14:17:29;19.70;;;9.25;;
36653;SDS011;22650;49.350;20.898;2022-11-20T14:20:04;24.15;;;10.40;;
36653;SDS011;22650;49.350;20.898;2022-11-20T14:22:47;23.60;;;9.77;;
36653;SDS011;22650;49.350;20.898;2022-11-20T14:25:22;18.30;;;9.45;;
36653;SDS011;22650;49.350;20.898;2022-11-20T14:28:00;27.92;;;10.00;;
36653;SDS011;22650;49.350;20.898;2022-11-20T14:30:37;25.83;;;11.32;;
36653;SDS011;22650;49.350;20.898;2022-11-20T14:33:15;28.30;;;12.07;;
36653;SDS011;22650;49.350;20.898;2022-11-20T14:35:49;28.90;;;12.32;;
36653;SDS011;22650;49.350;20.898;2022-11-20T14:38:25;31.33;;;13.77;;
36653;SDS011;22650;49.350;20.898;2022-11-20T14:41:06;36.65;;;13.63;;
36653;SDS011;22650;49.350;20.898;2022-11-20T14:43:44;37.45;;;13.98;;
36653;SDS011;22650;49.350;20.898;2022-11-20T14:46:19;32.72;;;14.35;;
36653;SDS011;22650;49.350;20.898;2022-11-20T14:48:54;29.48;;;12.55;;
36653;SDS011;22650;49.350;20.898;2022-11-20T14:51:30;24.98;;;11.43;;
36653;SDS011;22650;49.350;20.898;2022-11-20T14:54:10;33.05;;;13.55;;
36653;SDS011;22650;49.350;20.898;2022-11-20T14:56:54;25.90;;;11.77;;
36653;SDS011;22650;49.350;20.898;2022-11-20T14:59:31;34.92;;;15.10;;
36653;SDS011;22650;49.350;20.898;2022-11-20T15:02:05;44.72;;;18.50;;
36653;SDS011;22650;49.350;20.898;2022-11-20T15:04:45;45.05;;;19.38;;
36653;SDS011;22650;49.350;20.898;2022-11-20T15:07:24;44.83;;;18.48;;
36653;SDS011;22650;49.350;20.898;2022-11-20T15:09:59;48.08;;;21.27;;
36653;SDS011;22650;49.350;20.898;2022-11-20T15:12:34;50.75;;;19.65;;